sensor_id;sensor_type;location;lat;lon;timestamp;P1;durP1;ratioP1;P2;durP2;ratioP2
48076;SDS011;33854;57.708;12.008;2022-08-05T00:00:43;0.00;;;0.00;;
48076;SDS011;33854;57.708;12.008;2022-08-05T00:03:08;0.00;;;0.00;;
48076;SDS011;33854;57.708;12.008;2022-08-05T00:05:33;0.00;;;0.00;;
48076;SDS011;33854;57.708;12.008;2022-08-05T00:07:58;0.00;;;0.00;;
48076;SDS011;33854;57.708;12.008;2022-08-05T00:10:24;0.00;;;0.00;;
48076;SDS011;33854;57.708;12.008;2022-08-05T00:12:49;0.00;;;0.00;;
48076;SDS011;33854;57.708;12.008;2022-08-05T00:15:14;0.13;;;0.13;;
48076;SDS011;33854;57.708;12.008;2022-08-05T00:17:40;0.00;;;0.00;;
48076;SDS011;33854;57.708;12.008;2022-08-05T00:20:05;0.00;;;0.00;;
48076;SDS011;33854;57.708;12.008;2022-08-05T00:22:30;0.00;;;0.00;;
48076;SDS011;33854;57.708;12.008;2022-08-05T00:24:56;0.00;;;0.00;;
48076;SDS011;33854;57.708;12.008;2022-08-05T00:27:21;0.00;;;0.00;;
48076;SDS011;33854;57.708;12.008;2022-08-05T00:29:46;0.00;;;0.00;;
48076;SDS011;33854;57.708;12.008;2022-08-05T00:32:11;0.00;;;0.00;;
48076;SDS011;33854;57.708;12.008;2022-08-05T00:34:38;0.40;;;0.40;;
48076;SDS011;33854;57.708;12.008;2022-08-05T00:37:03;0.00;;;0.00;;
48076;SDS011;33854;57.708;12.008;2022-08-05T00:39:29;0.00;;;0.00;;
48076;SDS011;33854;57.708;12.008;2022-08-05T00:41:54;0.00;;;0.00;;
48076;SDS011;33854;57.708;12.008;2022-08-05T00:44:19;0.00;;;0.00;;
48076;SDS011;33854;57.708;12.008;2022-08-05T00:46:44;0.00;;;0.00;;
48076;SDS011;33854;57.708;12.008;2022-08-05T00:49:10;0.00;;;0.00;;
48076;SDS011;33854;57.708;12.008;2022-08-05T00:51:35;0.00;;;0.00;;
48076;SDS011;33854;57.708;12.008;2022-08-05T00:54:01;0.00;;;0.00;;
48076;SDS011;33854;57.708;12.008;2022-08-05T00:56:26;0.00;;;0.00;;
48076;SDS011;33854;57.708;12.008;2022-08-05T00:58:51;0.00;;;0.00;;
48076;SDS011;33854;57.708;12.008;2022-08-05T01:01:17;0.00;;;0.00;;
48076;SDS011;33854;57.708;12.008;2022-08-05T01:03:42;0.00;;;0.00;;
48076;SDS011;33854;57.708;12.008;2022-08-05T01:06:07;0.90;;;0.30;;
48076;SDS011;33854;57.708;12.008;2022-08-05T01:08:33;0.00;;;0.00;;
48076;SDS011;33854;57.708;12.008;2022-08-05T01:11:01;0.30;;;0.30;;
48076;SDS011;33854;57.708;12.008;2022-08-05T01:15:59;0.00;;;0.00;;
48076;SDS011;33854;57.708;12.008;2022-08-05T01:18:28;0.00;;;0.00;;
48076;SDS011;33854;57.708;12.008;2022-08-05T01:21:48;0.00;;;0.00;;
48076;SDS011;33854;57.708;12.008;2022-08-05T01:28:56;0.00;;;0.00;;
48076;SDS011;33854;57.708;12.008;2022-08-05T01:31:32;0.00;;;0.00;;
48076;SDS011;33854;57.708;12.008;2022-08-05T01:33:59;0.00;;;0.00;;
48076;SDS011;33854;57.708;12.008;2022-08-05T01:36:25;0.00;;;0.00;;
48076;SDS011;33854;57.708;12.008;2022-08-05T01:38:53;0.00;;;0.00;;
48076;SDS011;33854;57.708;12.008;2022-08-05T01:41:20;0.00;;;0.00;;
48076;SDS011;33854;57.708;12.008;2022-08-05T01:43:47;0.00;;;0.00;;
48076;SDS011;33854;57.708;12.008;2022-08-05T01:46:12;0.00;;;0.00;;
48076;SDS011;33854;57.708;12.008;2022-08-05T01:48:38;0.00;;;0.00;;
48076;SDS011;33854;57.708;12.008;2022-08-05T01:51:03;0.00;;;0.00;;
48076;SDS011;33854;57.708;12.008;2022-08-05T01:53:29;0.00;;;0.00;;
48076;SDS011;33854;57.708;12.008;2022-08-05T01:55:56;0.00;;;0.00;;
48076;SDS011;33854;57.708;12.008;2022-08-05T01:58:24;0.00;;;0.00;;
48076;SDS011;33854;57.708;12.008;2022-08-05T02:00:50;0.00;;;0.00;;
48076;SDS011;33854;57.708;12.008;2022-08-05T02:03:19;0.00;;;0.00;;
48076;SDS011;33854;57.708;12.008;2022-08-05T02:05:45;0.00;;;0.00;;
48076;SDS011;33854;57.708;12.008;2022-08-05T02:08:11;0.00;;;0.00;;
48076;SDS011;33854;57.708;12.008;2022-08-05T02:10:40;0.00;;;0.00;;
48076;SDS011;33854;57.708;12.008;2022-08-05T02:13:11;0.00;;;0.00;;
48076;SDS011;33854;57.708;12.008;2022-08-05T02:15:43;0.00;;;0.00;;
48076;SDS011;33854;57.708;12.008;2022-08-05T02:18:25;0.00;;;0.00;;
48076;SDS011;33854;57.708;12.008;2022-08-05T02:20:56;0.05;;;0.05;;
48076;SDS011;33854;57.708;12.008;2022-08-05T02:23:23;0.00;;;0.00;;
48076;SDS011;33854;57.708;12.008;2022-08-05T02:25:50;0.00;;;0.00;;
48076;SDS011;33854;57.708;12.008;2022-08-05T02:28:22;0.00;;;0.00;;
48076;SDS011;33854;57.708;12.008;2022-08-05T02:30:49;0.00;;;0.00;;
48076;SDS011;33854;57.708;12.008;2022-08-05T02:33:17;0.00;;;0.00;;
48076;SDS011;33854;57.708;12.008;2022-08-05T02:35:44;0.00;;;0.00;;
48076;SDS011;33854;57.708;12.008;2022-08-05T02:38:10;0.00;;;0.00;;
48076;SDS011;33854;57.708;12.008;2022-08-05T02:40:37;0.00;;;0.00;;
48076;SDS011;33854;57.708;12.008;2022-08-05T02:43:05;0.00;;;0.00;;
48076;SDS011;33854;57.708;12.008;2022-08-05T02:45:31;0.00;;;0.00;;
48076;SDS011;33854;57.708;12.008;2022-08-05T02:50:22;0.00;;;0.00;;
48076;SDS011;33854;57.708;12.008;2022-08-05T02:52:48;0.00;;;0.00;;
48076;SDS011;33854;57.708;12.008;2022-08-05T02:55:14;0.00;;;0.00;;
48076;SDS011;33854;57.708;12.008;2022-08-05T02:57:40;0.00;;;0.00;;
48076;SDS011;33854;57.708;12.008;2022-08-05T03:00:06;0.00;;;0.00;;
48076;SDS011;33854;57.708;12.008;2022-08-05T03:02:38;0.00;;;0.00;;
48076;SDS011;33854;57.708;12.008;2022-08-05T03:05:05;0.00;;;0.00;;
48076;SDS011;33854;57.708;12.008;2022-08-05T03:07:32;0.00;;;0.00;;
48076;SDS011;33854;57.708;12.008;2022-08-05T03:09:58;0.00;;;0.00;;
48076;SDS011;33854;57.708;12.008;2022-08-05T03:12:32;0.00;;;0.00;;
48076;SDS011;33854;57.708;12.008;2022-08-05T03:14:58;0.00;;;0.00;;
48076;SDS011;33854;57.708;12.008;2022-08-05T03:17:23;0.00;;;0.00;;
48076;SDS011;33854;57.708;12.008;2022-08-05T03:19:48;0.00;;;0.00;;
48076;SDS011;33854;57.708;12.008;2022-08-05T03:22:14;0.00;;;0.00;;
48076;SDS011;33854;57.708;12.008;2022-08-05T03:24:40;0.00;;;0.00;;
48076;SDS011;33854;57.708;12.008;2022-08-05T03:27:05;0.00;;;0.00;;
48076;SDS011;33854;57.708;12.008;2022-08-05T03:29:31;0.00;;;0.00;;
48076;SDS011;33854;57.708;12.008;2022-08-05T03:31:56;0.00;;;0.00;;
48076;SDS011;33854;57.708;12.008;2022-08-05T03:34:21;0.00;;;0.00;;
48076;SDS011;33854;57.708;12.008;2022-08-05T03:36:47;0.00;;;0.00;;
48076;SDS011;33854;57.708;12.008;2022-08-05T03:39:12;0.00;;;0.00;;
48076;SDS011;33854;57.708;12.008;2022-08-05T03:41:37;0.00;;;0.00;;
48076;SDS011;33854;57.708;12.008;2022-08-05T03:44:03;0.00;;;0.00;;
48076;SDS011;33854;57.708;12.008;2022-08-05T03:46:28;0.00;;;0.00;;
48076;SDS011;33854;57.708;12.008;2022-08-05T03:48:53;0.00;;;0.00;;
48076;SDS011;33854;57.708;12.008;2022-08-05T03:51:29;0.00;;;0.00;;
48076;SDS011;33854;57.708;12.008;2022-08-05T03:53:58;0.00;;;0.00;;
48076;SDS011;33854;57.708;12.008;2022-08-05T03:56:29;0.00;;;0.00;;
48076;SDS011;33854;57.708;12.008;2022-08-05T03:58:56;0.00;;;0.00;;
48076;SDS011;33854;57.708;12.008;2022-08-05T04:01:24;0.03;;;0.03;;
48076;SDS011;33854;57.708;12.008;2022-08-05T04:03:50;0.00;;;0.00;;
48076;SDS011;33854;57.708;12.008;2022-08-05T04:06:16;0.10;;;0.10;;
48076;SDS011;33854;57.708;12.008;2022-08-05T04:08:42;0.00;;;0.00;;
48076;SDS011;33854;57.708;12.008;2022-08-05T04:11:07;0.00;;;0.00;;
48076;SDS011;33854;57.708;12.008;2022-08-05T04:13:33;0.00;;;0.00;;
48076;SDS011;33854;57.708;12.008;2022-08-05T04:15:58;0.10;;;0.10;;
48076;SDS011;33854;57.708;12.008;2022-08-05T04:18:24;0.00;;;0.00;;
48076;SDS011;33854;57.708;12.008;2022-08-05T04:20:53;0.00;;;0.00;;
48076;SDS011;33854;57.708;12.008;2022-08-05T04:23:19;0.08;;;0.08;;
48076;SDS011;33854;57.708;12.008;2022-08-05T04:28:10;0.00;;;0.00;;
48076;SDS011;33854;57.708;12.008;2022-08-05T04:30:36;0.20;;;0.10;;
48076;SDS011;33854;57.708;12.008;2022-08-05T04:33:01;0.00;;;0.00;;
48076;SDS011;33854;57.708;12.008;2022-08-05T04:35:26;0.00;;;0.00;;
48076;SDS011;33854;57.708;12.008;2022-08-05T04:37:51;0.00;;;0.00;;
48076;SDS011;33854;57.708;12.008;2022-08-05T04:40:17;0.00;;;0.00;;
48076;SDS011;33854;57.708;12.008;2022-08-05T04:42:42;0.00;;;0.00;;
48076;SDS011;33854;57.708;12.008;2022-08-05T04:45:07;0.00;;;0.00;;
48076;SDS011;33854;57.708;12.008;2022-08-05T04:47:33;0.00;;;0.00;;
48076;SDS011;33854;57.708;12.008;2022-08-05T04:49:58;0.03;;;0.03;;
48076;SDS011;33854;57.708;12.008;2022-08-05T04:52:23;0.00;;;0.00;;
48076;SDS011;33854;57.708;12.008;2022-08-05T04:54:49;0.00;;;0.00;;
48076;SDS011;33854;57.708;12.008;2022-08-05T04:57:14;0.00;;;0.00;;
48076;SDS011;33854;57.708;12.008;2022-08-05T04:59:39;0.00;;;0.00;;
48076;SDS011;33854;57.708;12.008;2022-08-05T05:02:05;10.20;;;2.60;;
48076;SDS011;33854;57.708;12.008;2022-08-05T05:04:30;6.40;;;1.27;;
48076;SDS011;33854;57.708;12.008;2022-08-05T05:06:55;8.33;;;2.30;;
48076;SDS011;33854;57.708;12.008;2022-08-05T05:09:20;11.87;;;2.63;;
48076;SDS011;33854;57.708;12.008;2022-08-05T05:11:46;13.47;;;1.53;;
48076;SDS011;33854;57.708;12.008;2022-08-05T05:14:11;9.87;;;1.80;;
48076;SDS011;33854;57.708;12.008;2022-08-05T05:16:36;7.57;;;1.50;;
48076;SDS011;33854;57.708;12.008;2022-08-05T05:19:02;7.43;;;1.43;;
48076;SDS011;33854;57.708;12.008;2022-08-05T05:21:27;5.73;;;1.07;;
48076;SDS011;33854;57.708;12.008;2022-08-05T05:23:52;8.90;;;1.87;;
48076;SDS011;33854;57.708;12.008;2022-08-05T05:26:18;13.23;;;1.57;;
48076;SDS011;33854;57.708;12.008;2022-08-05T05:28:43;8.93;;;1.30;;
48076;SDS011;33854;57.708;12.008;2022-08-05T05:31:08;11.57;;;2.07;;
48076;SDS011;33854;57.708;12.008;2022-08-05T05:33:33;7.47;;;1.80;;
48076;SDS011;33854;57.708;12.008;2022-08-05T05:35:59;9.70;;;1.40;;
48076;SDS011;33854;57.708;12.008;2022-08-05T05:38:24;13.37;;;1.70;;
48076;SDS011;33854;57.708;12.008;2022-08-05T05:40:49;5.47;;;1.13;;
48076;SDS011;33854;57.708;12.008;2022-08-05T05:43:14;11.70;;;1.97;;
48076;SDS011;33854;57.708;12.008;2022-08-05T05:45:40;13.27;;;1.87;;
48076;SDS011;33854;57.708;12.008;2022-08-05T05:48:05;11.17;;;1.40;;
48076;SDS011;33854;57.708;12.008;2022-08-05T05:50:31;9.52;;;1.50;;
48076;SDS011;33854;57.708;12.008;2022-08-05T05:52:57;6.10;;;1.23;;
48076;SDS011;33854;57.708;12.008;2022-08-05T05:55:23;8.32;;;1.95;;
48076;SDS011;33854;57.708;12.008;2022-08-05T05:57:49;28.90;;;13.43;;
48076;SDS011;33854;57.708;12.008;2022-08-05T06:00:15;12.07;;;4.17;;
48076;SDS011;33854;57.708;12.008;2022-08-05T06:02:41;11.57;;;1.55;;
48076;SDS011;33854;57.708;12.008;2022-08-05T06:05:07;8.50;;;1.40;;
48076;SDS011;33854;57.708;12.008;2022-08-05T06:07:33;11.90;;;1.45;;
48076;SDS011;33854;57.708;12.008;2022-08-05T06:09:58;10.87;;;1.47;;
48076;SDS011;33854;57.708;12.008;2022-08-05T06:12:23;7.30;;;1.47;;
48076;SDS011;33854;57.708;12.008;2022-08-05T06:14:49;8.23;;;1.60;;
48076;SDS011;33854;57.708;12.008;2022-08-05T06:17:14;12.13;;;1.77;;
48076;SDS011;33854;57.708;12.008;2022-08-05T06:19:39;8.33;;;1.53;;
48076;SDS011;33854;57.708;12.008;2022-08-05T06:22:05;6.00;;;1.37;;
48076;SDS011;33854;57.708;12.008;2022-08-05T06:24:31;5.15;;;1.65;;
48076;SDS011;33854;57.708;12.008;2022-08-05T06:26:57;11.25;;;1.17;;
48076;SDS011;33854;57.708;12.008;2022-08-05T06:29:22;7.37;;;0.90;;
48076;SDS011;33854;57.708;12.008;2022-08-05T06:31:47;6.33;;;1.40;;
48076;SDS011;33854;57.708;12.008;2022-08-05T06:34:12;7.80;;;1.47;;
48076;SDS011;33854;57.708;12.008;2022-08-05T06:36:38;12.40;;;1.40;;
48076;SDS011;33854;57.708;12.008;2022-08-05T06:39:03;5.83;;;1.40;;
48076;SDS011;33854;57.708;12.008;2022-08-05T06:41:28;9.73;;;1.53;;
48076;SDS011;33854;57.708;12.008;2022-08-05T06:43:53;49.80;;;33.50;;
48076;SDS011;33854;57.708;12.008;2022-08-05T06:46:19;31.07;;;16.50;;
48076;SDS011;33854;57.708;12.008;2022-08-05T06:48:44;10.00;;;3.07;;
48076;SDS011;33854;57.708;12.008;2022-08-05T06:51:09;5.03;;;1.30;;
48076;SDS011;33854;57.708;12.008;2022-08-05T06:53:35;4.97;;;0.90;;
48076;SDS011;33854;57.708;12.008;2022-08-05T06:56:00;5.83;;;0.60;;
48076;SDS011;33854;57.708;12.008;2022-08-05T06:58:29;7.55;;;1.42;;
48076;SDS011;33854;57.708;12.008;2022-08-05T07:00:59;9.57;;;1.30;;
48076;SDS011;33854;57.708;12.008;2022-08-05T07:03:24;8.80;;;1.40;;
48076;SDS011;33854;57.708;12.008;2022-08-05T07:05:50;8.25;;;1.23;;
48076;SDS011;33854;57.708;12.008;2022-08-05T07:08:15;2.43;;;0.53;;
48076;SDS011;33854;57.708;12.008;2022-08-05T07:10:41;10.27;;;1.07;;
48076;SDS011;33854;57.708;12.008;2022-08-05T07:13:06;7.60;;;1.20;;
48076;SDS011;33854;57.708;12.008;2022-08-05T07:15:50;9.15;;;1.38;;
48076;SDS011;33854;57.708;12.008;2022-08-05T07:18:34;7.63;;;0.93;;
48076;SDS011;33854;57.708;12.008;2022-08-05T07:20:59;6.57;;;0.70;;
48076;SDS011;33854;57.708;12.008;2022-08-05T07:23:24;8.60;;;0.80;;
48076;SDS011;33854;57.708;12.008;2022-08-05T07:25:50;5.27;;;0.60;;
48076;SDS011;33854;57.708;12.008;2022-08-05T07:28:15;6.50;;;0.80;;
48076;SDS011;33854;57.708;12.008;2022-08-05T07:30:40;6.10;;;0.87;;
48076;SDS011;33854;57.708;12.008;2022-08-05T07:33:07;6.77;;;0.67;;
48076;SDS011;33854;57.708;12.008;2022-08-05T07:35:33;7.13;;;0.57;;
48076;SDS011;33854;57.708;12.008;2022-08-05T07:37:58;6.63;;;0.60;;
48076;SDS011;33854;57.708;12.008;2022-08-05T07:40:23;9.07;;;0.70;;
48076;SDS011;33854;57.708;12.008;2022-08-05T07:42:49;7.97;;;0.97;;
48076;SDS011;33854;57.708;12.008;2022-08-05T07:45:14;5.20;;;0.87;;
48076;SDS011;33854;57.708;12.008;2022-08-05T07:47:40;4.73;;;0.80;;
48076;SDS011;33854;57.708;12.008;2022-08-05T07:50:05;3.93;;;0.63;;
48076;SDS011;33854;57.708;12.008;2022-08-05T07:52:31;9.03;;;1.23;;
48076;SDS011;33854;57.708;12.008;2022-08-05T07:54:56;7.50;;;0.70;;
48076;SDS011;33854;57.708;12.008;2022-08-05T07:57:21;5.47;;;0.93;;
48076;SDS011;33854;57.708;12.008;2022-08-05T07:59:46;6.40;;;1.00;;
48076;SDS011;33854;57.708;12.008;2022-08-05T08:02:12;4.87;;;0.87;;
48076;SDS011;33854;57.708;12.008;2022-08-05T08:04:37;7.20;;;0.63;;
48076;SDS011;33854;57.708;12.008;2022-08-05T08:07:02;2.77;;;0.40;;
48076;SDS011;33854;57.708;12.008;2022-08-05T08:09:27;3.07;;;0.40;;
48076;SDS011;33854;57.708;12.008;2022-08-05T08:11:53;3.77;;;0.60;;
48076;SDS011;33854;57.708;12.008;2022-08-05T08:14:18;4.00;;;0.70;;
48076;SDS011;33854;57.708;12.008;2022-08-05T08:16:44;6.83;;;1.20;;
48076;SDS011;33854;57.708;12.008;2022-08-05T08:19:09;5.28;;;0.70;;
48076;SDS011;33854;57.708;12.008;2022-08-05T08:21:35;4.10;;;0.50;;
48076;SDS011;33854;57.708;12.008;2022-08-05T08:24:00;3.00;;;0.50;;
48076;SDS011;33854;57.708;12.008;2022-08-05T08:26:25;7.27;;;0.70;;
48076;SDS011;33854;57.708;12.008;2022-08-05T08:28:51;8.30;;;0.70;;
48076;SDS011;33854;57.708;12.008;2022-08-05T08:31:16;2.17;;;0.60;;
48076;SDS011;33854;57.708;12.008;2022-08-05T08:33:42;6.82;;;0.80;;
48076;SDS011;33854;57.708;12.008;2022-08-05T08:36:08;2.37;;;0.30;;
48076;SDS011;33854;57.708;12.008;2022-08-05T08:38:33;5.93;;;0.90;;
48076;SDS011;33854;57.708;12.008;2022-08-05T08:40:59;7.77;;;0.83;;
48076;SDS011;33854;57.708;12.008;2022-08-05T08:43:24;4.10;;;0.70;;
48076;SDS011;33854;57.708;12.008;2022-08-05T08:45:49;5.07;;;0.50;;
48076;SDS011;33854;57.708;12.008;2022-08-05T08:48:16;3.47;;;0.50;;
48076;SDS011;33854;57.708;12.008;2022-08-05T08:50:43;3.35;;;0.95;;
48076;SDS011;33854;57.708;12.008;2022-08-05T08:53:09;2.70;;;0.50;;
48076;SDS011;33854;57.708;12.008;2022-08-05T08:55:34;3.60;;;0.40;;
48076;SDS011;33854;57.708;12.008;2022-08-05T08:58:00;8.88;;;0.60;;
48076;SDS011;33854;57.708;12.008;2022-08-05T09:00:26;6.07;;;0.53;;
48076;SDS011;33854;57.708;12.008;2022-08-05T09:02:51;4.53;;;0.40;;
48076;SDS011;33854;57.708;12.008;2022-08-05T09:05:18;2.10;;;0.30;;
48076;SDS011;33854;57.708;12.008;2022-08-05T09:07:43;5.87;;;0.60;;
48076;SDS011;33854;57.708;12.008;2022-08-05T09:10:08;4.43;;;0.40;;
48076;SDS011;33854;57.708;12.008;2022-08-05T09:12:34;3.63;;;0.47;;
48076;SDS011;33854;57.708;12.008;2022-08-05T09:15:00;1.17;;;0.40;;
48076;SDS011;33854;57.708;12.008;2022-08-05T09:17:26;2.50;;;0.32;;
48076;SDS011;33854;57.708;12.008;2022-08-05T09:19:51;4.63;;;0.53;;
48076;SDS011;33854;57.708;12.008;2022-08-05T09:22:16;10.73;;;1.23;;
48076;SDS011;33854;57.708;12.008;2022-08-05T09:24:42;2.00;;;0.30;;
48076;SDS011;33854;57.708;12.008;2022-08-05T09:27:30;4.28;;;0.60;;
48076;SDS011;33854;57.708;12.008;2022-08-05T09:29:57;2.45;;;0.20;;
48076;SDS011;33854;57.708;12.008;2022-08-05T09:32:22;1.45;;;0.30;;
48076;SDS011;33854;57.708;12.008;2022-08-05T09:34:57;3.67;;;0.60;;
48076;SDS011;33854;57.708;12.008;2022-08-05T09:37:25;5.63;;;0.55;;
48076;SDS011;33854;57.708;12.008;2022-08-05T09:39:51;4.27;;;0.70;;
48076;SDS011;33854;57.708;12.008;2022-08-05T09:42:17;1.17;;;0.40;;
48076;SDS011;33854;57.708;12.008;2022-08-05T09:44:43;5.47;;;0.60;;
48076;SDS011;33854;57.708;12.008;2022-08-05T09:47:14;2.20;;;0.38;;
48076;SDS011;33854;57.708;12.008;2022-08-05T09:49:43;1.83;;;0.40;;
48076;SDS011;33854;57.708;12.008;2022-08-05T09:52:19;2.10;;;0.45;;
48076;SDS011;33854;57.708;12.008;2022-08-05T09:57:10;1.30;;;0.20;;
48076;SDS011;33854;57.708;12.008;2022-08-05T09:59:55;1.55;;;0.40;;
48076;SDS011;33854;57.708;12.008;2022-08-05T10:05:18;5.03;;;0.60;;
48076;SDS011;33854;57.708;12.008;2022-08-05T10:07:51;0.88;;;0.55;;
48076;SDS011;33854;57.708;12.008;2022-08-05T10:10:19;5.32;;;0.30;;
48076;SDS011;33854;57.708;12.008;2022-08-05T10:12:54;2.58;;;0.68;;
48076;SDS011;33854;57.708;12.008;2022-08-05T10:20:33;2.60;;;0.40;;
48076;SDS011;33854;57.708;12.008;2022-08-05T10:22:59;5.68;;;0.77;;
48076;SDS011;33854;57.708;12.008;2022-08-05T10:25:25;3.20;;;1.20;;
48076;SDS011;33854;57.708;12.008;2022-08-05T10:27:50;2.37;;;0.57;;
48076;SDS011;33854;57.708;12.008;2022-08-05T10:30:17;4.78;;;0.93;;
48076;SDS011;33854;57.708;12.008;2022-08-05T10:32:43;3.93;;;1.03;;
48076;SDS011;33854;57.708;12.008;2022-08-05T10:35:08;5.33;;;0.47;;
48076;SDS011;33854;57.708;12.008;2022-08-05T10:37:33;4.60;;;1.00;;
48076;SDS011;33854;57.708;12.008;2022-08-05T10:40:00;4.53;;;1.13;;
48076;SDS011;33854;57.708;12.008;2022-08-05T10:42:28;5.93;;;0.70;;
48076;SDS011;33854;57.708;12.008;2022-08-05T10:44:53;4.50;;;0.50;;
48076;SDS011;33854;57.708;12.008;2022-08-05T10:47:23;4.65;;;0.50;;
48076;SDS011;33854;57.708;12.008;2022-08-05T10:50:12;2.30;;;0.40;;
48076;SDS011;33854;57.708;12.008;2022-08-05T10:55:05;6.18;;;0.35;;
48076;SDS011;33854;57.708;12.008;2022-08-05T10:57:30;1.88;;;0.50;;
48076;SDS011;33854;57.708;12.008;2022-08-05T11:03:07;2.83;;;0.38;;
48076;SDS011;33854;57.708;12.008;2022-08-05T11:05:36;2.65;;;0.30;;
48076;SDS011;33854;57.708;12.008;2022-08-05T11:08:02;4.20;;;0.67;;
48076;SDS011;33854;57.708;12.008;2022-08-05T11:10:28;0.85;;;0.20;;
48076;SDS011;33854;57.708;12.008;2022-08-05T11:12:54;2.53;;;0.40;;
48076;SDS011;33854;57.708;12.008;2022-08-05T11:17:54;3.30;;;0.50;;
48076;SDS011;33854;57.708;12.008;2022-08-05T11:26:10;1.42;;;0.52;;
48076;SDS011;33854;57.708;12.008;2022-08-05T11:33:33;2.70;;;0.40;;
48076;SDS011;33854;57.708;12.008;2022-08-05T11:36:05;2.88;;;0.20;;
48076;SDS011;33854;57.708;12.008;2022-08-05T11:41:03;3.58;;;0.40;;
48076;SDS011;33854;57.708;12.008;2022-08-05T11:43:28;2.58;;;0.30;;
48076;SDS011;33854;57.708;12.008;2022-08-05T11:45:54;1.60;;;0.50;;
48076;SDS011;33854;57.708;12.008;2022-08-05T11:48:19;3.90;;;0.63;;
48076;SDS011;33854;57.708;12.008;2022-08-05T11:50:46;2.27;;;0.40;;
48076;SDS011;33854;57.708;12.008;2022-08-05T11:53:11;1.42;;;0.28;;
48076;SDS011;33854;57.708;12.008;2022-08-05T11:55:36;0.50;;;0.20;;
48076;SDS011;33854;57.708;12.008;2022-08-05T11:58:02;1.23;;;0.27;;
48076;SDS011;33854;57.708;12.008;2022-08-05T12:00:28;2.33;;;0.23;;
48076;SDS011;33854;57.708;12.008;2022-08-05T12:02:53;1.65;;;0.30;;
48076;SDS011;33854;57.708;12.008;2022-08-05T12:05:25;0.70;;;0.30;;
48076;SDS011;33854;57.708;12.008;2022-08-05T12:07:51;1.85;;;0.20;;
48076;SDS011;33854;57.708;12.008;2022-08-05T12:10:17;1.13;;;0.40;;
48076;SDS011;33854;57.708;12.008;2022-08-05T12:12:43;1.73;;;0.38;;
48076;SDS011;33854;57.708;12.008;2022-08-05T12:15:17;1.27;;;0.20;;
48076;SDS011;33854;57.708;12.008;2022-08-05T12:17:42;3.13;;;0.63;;
48076;SDS011;33854;57.708;12.008;2022-08-05T12:20:08;3.37;;;0.37;;
48076;SDS011;33854;57.708;12.008;2022-08-05T12:22:33;3.03;;;0.30;;
48076;SDS011;33854;57.708;12.008;2022-08-05T12:24:58;1.73;;;0.20;;
48076;SDS011;33854;57.708;12.008;2022-08-05T12:27:25;3.87;;;0.43;;
48076;SDS011;33854;57.708;12.008;2022-08-05T12:32:15;1.10;;;0.30;;
48076;SDS011;33854;57.708;12.008;2022-08-05T12:34:41;5.50;;;0.40;;
48076;SDS011;33854;57.708;12.008;2022-08-05T12:37:07;1.73;;;0.40;;
48076;SDS011;33854;57.708;12.008;2022-08-05T12:39:37;3.58;;;0.45;;
48076;SDS011;33854;57.708;12.008;2022-08-05T12:42:02;1.92;;;0.38;;
48076;SDS011;33854;57.708;12.008;2022-08-05T12:44:31;3.70;;;0.20;;
48076;SDS011;33854;57.708;12.008;2022-08-05T12:46:57;0.67;;;0.50;;
48076;SDS011;33854;57.708;12.008;2022-08-05T12:49:22;2.47;;;0.43;;
48076;SDS011;33854;57.708;12.008;2022-08-05T12:56:48;2.28;;;0.30;;
48076;SDS011;33854;57.708;12.008;2022-08-05T13:01:40;0.47;;;0.20;;
48076;SDS011;33854;57.708;12.008;2022-08-05T13:06:31;2.43;;;0.17;;
48076;SDS011;33854;57.708;12.008;2022-08-05T13:08:56;0.87;;;0.20;;
48076;SDS011;33854;57.708;12.008;2022-08-05T13:11:22;0.43;;;0.10;;
48076;SDS011;33854;57.708;12.008;2022-08-05T13:13:48;2.97;;;0.28;;
48076;SDS011;33854;57.708;12.008;2022-08-05T13:16:14;1.42;;;0.28;;
48076;SDS011;33854;57.708;12.008;2022-08-05T13:18:49;0.95;;;0.20;;
48076;SDS011;33854;57.708;12.008;2022-08-05T13:21:14;2.47;;;0.25;;
48076;SDS011;33854;57.708;12.008;2022-08-05T13:23:39;0.83;;;0.17;;
48076;SDS011;33854;57.708;12.008;2022-08-05T13:26:04;2.00;;;0.10;;
48076;SDS011;33854;57.708;12.008;2022-08-05T13:28:30;1.80;;;0.20;;
48076;SDS011;33854;57.708;12.008;2022-08-05T13:30:55;3.07;;;0.60;;
48076;SDS011;33854;57.708;12.008;2022-08-05T13:33:20;3.27;;;0.20;;
48076;SDS011;33854;57.708;12.008;2022-08-05T13:35:46;0.73;;;0.37;;
48076;SDS011;33854;57.708;12.008;2022-08-05T13:38:11;1.50;;;0.23;;
48076;SDS011;33854;57.708;12.008;2022-08-05T13:40:36;3.63;;;0.30;;
48076;SDS011;33854;57.708;12.008;2022-08-05T13:43:01;2.13;;;0.17;;
48076;SDS011;33854;57.708;12.008;2022-08-05T13:45:26;4.40;;;0.60;;
48076;SDS011;33854;57.708;12.008;2022-08-05T13:47:52;2.70;;;0.40;;
48076;SDS011;33854;57.708;12.008;2022-08-05T13:50:17;3.53;;;0.53;;
48076;SDS011;33854;57.708;12.008;2022-08-05T13:52:42;0.73;;;0.20;;
48076;SDS011;33854;57.708;12.008;2022-08-05T13:55:07;2.20;;;0.40;;
48076;SDS011;33854;57.708;12.008;2022-08-05T13:57:33;3.00;;;0.93;;
48076;SDS011;33854;57.708;12.008;2022-08-05T13:59:58;0.53;;;0.20;;
48076;SDS011;33854;57.708;12.008;2022-08-05T14:02:23;2.73;;;0.40;;
48076;SDS011;33854;57.708;12.008;2022-08-05T14:04:48;1.97;;;0.30;;
48076;SDS011;33854;57.708;12.008;2022-08-05T14:07:33;1.48;;;0.20;;
48076;SDS011;33854;57.708;12.008;2022-08-05T14:09:59;4.35;;;0.40;;
48076;SDS011;33854;57.708;12.008;2022-08-05T14:12:25;1.95;;;0.60;;
48076;SDS011;33854;57.708;12.008;2022-08-05T14:14:51;3.10;;;0.47;;
48076;SDS011;33854;57.708;12.008;2022-08-05T14:19:42;2.95;;;0.57;;
48076;SDS011;33854;57.708;12.008;2022-08-05T14:22:07;3.25;;;0.60;;
48076;SDS011;33854;57.708;12.008;2022-08-05T14:24:33;1.90;;;0.30;;
48076;SDS011;33854;57.708;12.008;2022-08-05T14:26:58;0.97;;;0.37;;
48076;SDS011;33854;57.708;12.008;2022-08-05T14:29:23;1.15;;;0.45;;
48076;SDS011;33854;57.708;12.008;2022-08-05T14:31:49;0.73;;;0.10;;
48076;SDS011;33854;57.708;12.008;2022-08-05T14:34:14;1.17;;;0.37;;
48076;SDS011;33854;57.708;12.008;2022-08-05T14:36:39;3.53;;;0.50;;
48076;SDS011;33854;57.708;12.008;2022-08-05T14:39:04;1.30;;;0.40;;
48076;SDS011;33854;57.708;12.008;2022-08-05T14:41:30;2.03;;;0.30;;
48076;SDS011;33854;57.708;12.008;2022-08-05T14:43:55;2.67;;;0.40;;
48076;SDS011;33854;57.708;12.008;2022-08-05T14:46:22;2.75;;;0.22;;
48076;SDS011;33854;57.708;12.008;2022-08-05T14:48:48;2.25;;;0.30;;
48076;SDS011;33854;57.708;12.008;2022-08-05T14:51:13;2.13;;;0.40;;
48076;SDS011;33854;57.708;12.008;2022-08-05T14:53:38;1.27;;;0.40;;
48076;SDS011;33854;57.708;12.008;2022-08-05T14:56:04;1.97;;;0.40;;
48076;SDS011;33854;57.708;12.008;2022-08-05T14:58:29;2.43;;;0.57;;
48076;SDS011;33854;57.708;12.008;2022-08-05T15:00:54;1.97;;;0.80;;
48076;SDS011;33854;57.708;12.008;2022-08-05T15:03:19;4.10;;;0.40;;
48076;SDS011;33854;57.708;12.008;2022-08-05T15:05:45;4.80;;;0.40;;
48076;SDS011;33854;57.708;12.008;2022-08-05T15:08:10;1.87;;;0.40;;
48076;SDS011;33854;57.708;12.008;2022-08-05T15:10:35;2.83;;;0.50;;
48076;SDS011;33854;57.708;12.008;2022-08-05T15:13:00;5.33;;;0.73;;
48076;SDS011;33854;57.708;12.008;2022-08-05T15:15:27;3.00;;;0.50;;
48076;SDS011;33854;57.708;12.008;2022-08-05T15:17:53;1.73;;;0.40;;
48076;SDS011;33854;57.708;12.008;2022-08-05T15:20:18;3.60;;;0.40;;
48076;SDS011;33854;57.708;12.008;2022-08-05T15:22:43;1.57;;;0.60;;
48076;SDS011;33854;57.708;12.008;2022-08-05T15:25:08;2.93;;;0.40;;
48076;SDS011;33854;57.708;12.008;2022-08-05T15:27:34;3.03;;;0.73;;